CDT,Max TemperatureF,Mean TemperatureF,Min TemperatureF,Max Dew PointF,MeanDew PointF,Min DewpointF,Max Humidity, Mean Humidity, Min Humidity, Max Sea Level PressureIn, Mean Sea Level PressureIn, Min Sea Level PressureIn, Max VisibilityMiles, Mean VisibilityMiles, Min VisibilityMiles, Max Wind SpeedMPH, Mean Wind SpeedMPH, Max Gust SpeedMPH,PrecipitationIn, CloudCover, Events, WindDirDegrees
2012-10-1,87,74,62,63,59,54,94,61,31,29.92,29.86,29.80,10,10,10,8,2,16,0.00,0,,8
2012-10-2,91,78,64,64,56,41,94,55,19,29.98,29.93,29.88,10,10,10,15,3,22,0.00,1,,342
2012-10-3,95,82,68,68,63,59,83,60,32,29.99,29.95,29.89,10,10,10,17,7,24,0.02,0,Thunderstorm,152
2012-10-4,95,84,73,70,66,55,88,61,26,30.08,30.02,29.98,10,10,7,21,12,30,0.00,0,,160
2012-10-5,95,82,68,68,62,54,88,61,26,30.09,30.02,29.93,10,10,10,16,6,21,0.00,0,,144
2012-10-6,95,78,62,68,62,55,94,61,26,29.98,29.93,29.86,10,10,7,14,4,21,0.00,1,,128
2012-10-7,73,70,66,68,61,55,88,73,64,30.11,30.03,29.95,10,9,7,17,7,25,0.00,7,Rain,6
2012-10-8,69,64,60,55,51,46,68,57,46,30.19,30.12,30.08,10,10,7,14,10,20,0.00,8,,348
2012-10-9,91,76,60,72,61,52,83,61,38,30.10,29.99,29.90,10,10,5,16,5,22,0.00,3,,119
2012-10-10,96,84,73,73,70,64,94,67,37,30.04,29.98,29.92,10,10,7,17,7,25,0.05,2,,141
2012-10-11,93,85,77,73,71,64,83,69,38,30.08,30.03,29.99,10,10,7,17,8,25,0.08,2,Rain,136
2012-10-12,96,84,73,73,71,64,94,71,36,30.12,30.05,29.99,10,10,7,20,7,28,0.00,3,,134
2012-10-13,91,82,73,73,70,66,94,69,46,30.05,29.98,29.89,10,10,7,26,13,32,0.01,2,Rain-Thunderstorm,148
2012-10-14,93,84,75,70,66,59,83,61,34,30.03,29.96,29.90,10,10,10,16,9,22,0.00,1,,152
2012-10-15,93,81,69,68,64,55,88,62,29,30.06,29.99,29.91,10,9,5,12,3,17,0.00,1,,100
2012-10-16,95,83,71,68,64,52,88,59,25,29.96,29.85,29.73,10,10,7,15,5,21,0.00,1,,158
2012-10-17,96,86,75,70,66,57,78,58,27,29.79,29.72,29.64,10,10,7,16,9,21,0.00,0,,178
2012-10-18,104,88,71,72,68,61,89,63,24,29.85,29.75,29.68,10,9,2,26,9,44,0.39,1,Rain-Thunderstorm,166
2012-10-19,87,78,69,73,69,61,94,74,55,29.98,29.92,29.86,10,7,2,16,7,23,0.00,5,,24
2012-10-20,91,81,71,73,69,63,94,63,38,29.91,29.85,29.79,10,8,4,18,10,25,0.00,2,,155
2012-10-21,93,83,73,72,68,61,88,67,36,29.92,29.87,29.83,10,9,7,23,10,29,0.00,0,,151
2012-10-22,91,81,71,70,68,63,94,68,38,29.94,29.90,29.85,10,10,7,21,9,28,0.00,2,,148
2012-10-23,91,82,73,68,66,64,83,63,41,29.95,29.90,29.86,10,10,7,17,8,21,0.00,2,,127
2012-10-24,93,81,69,68,63,55,83,61,29,29.95,29.90,29.83,10,10,7,16,6,22,0.00,1,,136
2012-10-25,95,82,69,70,64,52,88,60,27,29.88,29.83,29.76,10,10,7,17,8,24,0.00,0,,149
2012-10-26,89,72,55,70,61,46,94,65,38,30.19,29.98,29.87,10,10,7,20,7,28,0.02,3,Rain,51
2012-10-27,66,60,53,50,40,34,88,55,32,30.25,30.18,30.10,10,9,4,21,12,29,0.00,6,Rain,348
2012-10-28,75,65,55,45,38,32,63,40,21,30.23,30.18,30.13,10,10,7,12,6,16,0.00,7,,11
2012-10-29,80,66,53,54,45,41,72,43,28,30.24,30.17,30.10,10,9,7,10,5,16,0.00,0,,42
2012-10-30,87,71,55,61,56,52,88,62,33,30.13,30.03,29.94,10,10,7,16,4,18,0.00,1,,145
2012-10-31,91,78,66,68,62,55,88,64,29,30.01,29.96,29.91,10,10,10,15,6,18,0.00,1,,155